createdAt,value
2018-08-27T00:00:50.759Z,2.02
2018-08-27T00:03:19.521Z,1.50
2018-08-27T00:05:48.196Z,3.20
2018-08-27T00:08:16.797Z,3.40
2018-08-27T00:10:45.406Z,2.90
2018-08-27T00:13:14.191Z,3.20
2018-08-27T00:15:42.703Z,2.87
2018-08-27T00:18:11.243Z,1.98
2018-08-27T00:20:39.931Z,3.55
2018-08-27T00:23:08.591Z,3.30
2018-08-27T00:25:37.200Z,3.63
2018-08-27T00:28:05.807Z,2.22
2018-08-27T00:30:34.411Z,3.75
2018-08-27T00:33:03.054Z,6.78
2018-08-27T00:35:31.662Z,7.22
2018-08-27T00:38:00.255Z,9.13
2018-08-27T00:40:28.774Z,8.18
2018-08-27T00:42:57.598Z,6.37
2018-08-27T00:45:26.167Z,4.53
2018-08-27T00:47:54.717Z,3.02
2018-08-27T00:50:23.615Z,2.77
2018-08-27T00:52:52.335Z,2.92
2018-08-27T00:55:21.048Z,2.90
2018-08-27T00:57:49.666Z,1.98
2018-08-27T01:00:18.575Z,3.03
2018-08-27T01:02:47.214Z,1.85
2018-08-27T01:05:15.794Z,2.90
2018-08-27T01:07:44.669Z,1.98
2018-08-27T01:10:14.333Z,41.88
2018-08-27T01:12:42.858Z,1.62
2018-08-27T01:15:11.627Z,2.65
2018-08-27T01:17:40.229Z,4.23
2018-08-27T01:20:09.377Z,2.60
2018-08-27T01:22:38.019Z,2.55
2018-08-27T01:25:06.881Z,2.83
2018-08-27T01:27:35.643Z,1.83
2018-08-27T01:30:04.526Z,2.58
2018-08-27T01:32:33.267Z,1.03
2018-08-27T01:35:01.904Z,2.83
2018-08-27T01:37:30.441Z,2.77
2018-08-27T01:39:59.206Z,3.47
2018-08-27T01:42:27.876Z,1.80
2018-08-27T01:44:56.768Z,1.82
2018-08-27T01:47:25.335Z,2.75
2018-08-27T01:49:53.948Z,1.67
2018-08-27T01:52:22.491Z,1.80
2018-08-27T01:54:51.187Z,11.53
2018-08-27T01:57:20.118Z,2.08
2018-08-27T01:59:48.762Z,5.37
2018-08-27T02:02:17.363Z,1.98
2018-08-27T02:04:45.909Z,3.10
2018-08-27T02:07:14.874Z,1.20
2018-08-27T02:09:43.358Z,2.10
2018-08-27T02:12:11.912Z,7.30
2018-08-27T02:14:40.552Z,6.60
2018-08-27T02:17:09.239Z,3.87
2018-08-27T02:19:37.709Z,19.77
2018-08-27T02:22:06.735Z,3.53
2018-08-27T02:27:03.392Z,5.20
2018-08-27T02:31:59.903Z,8.60
2018-08-27T02:34:28.504Z,7.17
2018-08-27T02:36:57.184Z,4.92
2018-08-27T02:39:25.698Z,3.80
2018-08-27T02:41:54.239Z,2.10
2018-08-27T02:44:22.864Z,3.15
2018-08-27T02:46:51.528Z,5.35
2018-08-27T02:49:20.360Z,4.75
2018-08-27T02:51:48.844Z,5.83
2018-08-27T02:54:17.501Z,3.57
2018-08-27T02:56:46.017Z,8.13
2018-08-27T02:59:14.698Z,5.28
2018-08-27T03:01:43.200Z,19.77
2018-08-27T03:04:11.955Z,20.97
2018-08-27T03:06:40.917Z,52.53
2018-08-27T03:09:10.222Z,25.23
2018-08-27T03:11:38.788Z,11.03
2018-08-27T03:14:07.507Z,3.02
2018-08-27T03:16:36.046Z,7.42
2018-08-27T03:19:04.800Z,6.95
2018-08-27T03:21:33.307Z,13.53
2018-08-27T03:24:01.954Z,43.63
2018-08-27T03:26:30.542Z,32.45
2018-08-27T03:28:59.191Z,28.12
2018-08-27T03:31:28.148Z,41.18
2018-08-27T03:33:56.668Z,4.97
2018-08-27T03:36:25.187Z,7.40
2018-08-27T03:38:53.808Z,7.53
2018-08-27T03:41:22.559Z,3.90
2018-08-27T03:43:51.276Z,2.40
2018-08-27T03:46:19.859Z,5.60
2018-08-27T03:48:48.599Z,5.00
2018-08-27T03:51:17.151Z,6.93
2018-08-27T03:53:45.710Z,7.17
2018-08-27T03:56:14.771Z,4.47
2018-08-27T03:58:43.334Z,3.63
2018-08-27T04:01:12.124Z,5.40
2018-08-27T04:03:40.696Z,2.87
2018-08-27T04:06:09.323Z,3.03
2018-08-27T04:08:37.919Z,7.23
2018-08-27T04:11:06.742Z,2.93
2018-08-27T04:13:35.523Z,2.43
2018-08-27T04:16:04.028Z,6.57
2018-08-27T04:18:32.639Z,3.40
2018-08-27T04:21:01.312Z,6.60
2018-08-27T04:23:29.860Z,3.63
2018-08-27T04:25:58.548Z,2.57
2018-08-27T04:28:27.193Z,4.53
2018-08-27T04:30:55.816Z,2.87
2018-08-27T04:33:24.636Z,1.70
2018-08-27T04:35:53.402Z,4.00
2018-08-27T04:38:22.119Z,2.30
2018-08-27T04:40:50.956Z,5.47
2018-08-27T04:43:22.552Z,7.33
2018-08-27T04:45:51.440Z,6.53
2018-08-27T04:48:20.097Z,4.07
2018-08-27T04:50:48.663Z,3.13
2018-08-27T04:53:17.295Z,2.57
2018-08-27T04:55:45.998Z,4.87
2018-08-27T04:58:14.608Z,7.70
2018-08-27T05:00:43.541Z,6.53
2018-08-27T05:03:12.512Z,11.63
2018-08-27T05:05:41.077Z,7.03
2018-08-27T05:08:09.810Z,3.43
2018-08-27T05:10:38.366Z,2.20
2018-08-27T05:13:06.986Z,3.63
2018-08-27T05:15:35.577Z,2.77
2018-08-27T05:18:04.201Z,2.83
2018-08-27T05:20:32.899Z,5.43
2018-08-27T05:23:01.438Z,4.50
2018-08-27T05:25:29.965Z,3.20
2018-08-27T05:27:58.662Z,5.27
2018-08-27T05:30:27.506Z,4.10
2018-08-27T05:32:56.251Z,4.13
2018-08-27T05:35:24.915Z,3.27
2018-08-27T05:37:53.798Z,3.03
2018-08-27T05:40:22.574Z,4.80
2018-08-27T05:42:51.099Z,6.67
2018-08-27T05:45:19.812Z,4.17
2018-08-27T05:47:48.533Z,4.53
2018-08-27T05:50:17.546Z,4.30
2018-08-27T05:52:46.142Z,4.00
2018-08-27T05:55:14.724Z,4.90
2018-08-27T05:57:43.477Z,4.33
2018-08-27T06:00:12.204Z,4.10
2018-08-27T06:02:40.809Z,3.87
2018-08-27T06:05:09.456Z,4.67
2018-08-27T06:07:37.987Z,5.50
2018-08-27T06:10:07.564Z,4.37
2018-08-27T06:12:36.588Z,5.07
2018-08-27T06:15:06.371Z,4.30
2018-08-27T06:17:35.285Z,6.17
2018-08-27T06:20:04.037Z,6.90
2018-08-27T06:22:32.712Z,7.83
2018-08-27T06:25:01.547Z,4.83
2018-08-27T06:27:30.212Z,4.00
2018-08-27T06:29:58.918Z,2.80
2018-08-27T06:32:27.720Z,4.77
2018-08-27T06:34:56.519Z,6.13
2018-08-27T06:37:25.772Z,8.03
2018-08-27T06:39:54.555Z,10.90
2018-08-27T06:42:23.187Z,4.47
2018-08-27T06:44:51.788Z,3.03
2018-08-27T06:47:20.400Z,4.73
2018-08-27T06:49:49.467Z,2.90
2018-08-27T06:52:18.048Z,2.80
2018-08-27T06:54:46.882Z,4.33
2018-08-27T06:57:15.537Z,3.37
2018-08-27T06:59:44.304Z,3.67
2018-08-27T07:02:12.922Z,1.70
2018-08-27T07:04:41.552Z,6.87
2018-08-27T07:07:10.178Z,5.90
2018-08-27T07:09:38.792Z,5.03
2018-08-27T07:12:07.385Z,1.73
2018-08-27T07:14:35.960Z,1.60
2018-08-27T07:17:05.074Z,3.87
2018-08-27T07:19:33.952Z,4.33
2018-08-27T07:22:02.641Z,2.73
2018-08-27T07:24:31.402Z,3.90
2018-08-27T07:27:00.018Z,2.40
2018-08-27T07:29:28.999Z,9.10
2018-08-27T07:31:57.588Z,3.87
2018-08-27T07:34:26.342Z,4.20
2018-08-27T07:36:54.928Z,3.23
2018-08-27T07:39:23.643Z,5.13
2018-08-27T07:41:52.250Z,4.23
2018-08-27T07:44:20.935Z,1.77
2018-08-27T07:46:49.565Z,1.77
2018-08-27T07:49:18.106Z,2.30
2018-08-27T07:51:47.016Z,2.20
2018-08-27T07:54:15.654Z,2.13
2018-08-27T07:56:44.310Z,3.50
2018-08-27T07:59:12.891Z,1.47
2018-08-27T08:01:41.472Z,2.73
2018-08-27T08:04:10.345Z,2.13
2018-08-27T08:06:39.010Z,10.83
2018-08-27T08:09:09.674Z,1.63
2018-08-27T08:11:38.739Z,3.17
2018-08-27T08:14:07.545Z,1.80
2018-08-27T08:16:36.186Z,1.47
2018-08-27T08:19:04.882Z,2.07
2018-08-27T08:21:33.451Z,5.33
2018-08-27T08:24:02.296Z,5.73
2018-08-27T08:26:31.264Z,3.47
2018-08-27T08:28:59.935Z,5.23
2018-08-27T08:31:28.533Z,4.40
2018-08-27T08:33:57.217Z,6.30
2018-08-27T08:36:25.880Z,2.40
2018-08-27T08:38:54.632Z,3.00
2018-08-27T08:41:23.215Z,5.73
2018-08-27T08:43:51.936Z,5.90
2018-08-27T08:46:20.652Z,3.33
2018-08-27T08:48:49.310Z,4.93
2018-08-27T08:51:18.295Z,4.20
2018-08-27T08:53:47.005Z,6.23
2018-08-27T08:56:15.696Z,11.93
2018-08-27T08:58:44.468Z,5.37
2018-08-27T09:01:13.230Z,3.03
2018-08-27T09:03:42.145Z,10.00
2018-08-27T09:06:10.868Z,9.23
2018-08-27T09:08:39.981Z,5.00
2018-08-27T09:11:08.503Z,7.50
2018-08-27T09:13:37.453Z,10.30
2018-08-27T09:16:06.624Z,4.50
2018-08-27T09:18:35.317Z,4.80
2018-08-27T09:21:04.433Z,5.60
2018-08-27T09:23:33.087Z,6.00
2018-08-27T09:26:01.773Z,4.83
2018-08-27T09:28:30.401Z,6.00
2018-08-27T09:30:59.308Z,5.17
2018-08-27T09:33:28.120Z,5.80
2018-08-27T09:35:56.883Z,5.73
2018-08-27T09:38:25.860Z,6.00
2018-08-27T09:40:54.569Z,5.20
2018-08-27T09:43:23.202Z,6.40
2018-08-27T09:45:52.198Z,6.20
2018-08-27T09:48:21.143Z,9.67
2018-08-27T09:50:49.792Z,5.50
2018-08-27T09:53:18.730Z,5.80
2018-08-27T09:55:47.226Z,4.53
2018-08-27T09:58:15.942Z,7.60
2018-08-27T10:00:50.297Z,4.77
2018-08-27T10:03:19.009Z,5.10
2018-08-27T10:05:47.601Z,7.10
2018-08-27T10:08:16.335Z,4.47
2018-08-27T10:10:45.116Z,4.50
2018-08-27T10:13:13.727Z,6.03
2018-08-27T10:15:42.422Z,8.10
2018-08-27T10:18:11.204Z,9.23
2018-08-27T10:20:39.991Z,8.73
2018-08-27T10:23:08.602Z,7.70
2018-08-27T10:25:37.738Z,10.73
2018-08-27T10:28:06.488Z,6.17
2018-08-27T10:30:35.120Z,9.30
2018-08-27T10:33:03.831Z,8.80
2018-08-27T10:35:32.421Z,6.10
2018-08-27T10:38:01.116Z,5.47
2018-08-27T10:40:30.208Z,13.50
2018-08-27T10:42:59.111Z,7.47
2018-08-27T10:45:30.107Z,5.43
2018-08-27T10:47:58.835Z,8.93
2018-08-27T10:50:27.571Z,7.13
2018-08-27T10:52:56.407Z,6.60
2018-08-27T10:55:24.969Z,10.20
2018-08-27T10:57:54.004Z,6.50
2018-08-27T11:00:22.644Z,5.10
2018-08-27T11:02:51.205Z,7.60
2018-08-27T11:05:19.980Z,5.60
2018-08-27T11:07:52.257Z,9.17
2018-08-27T11:10:21.872Z,11.23
2018-08-27T11:12:51.180Z,7.97
2018-08-27T11:15:20.207Z,14.80
2018-08-27T11:17:49.290Z,9.30
2018-08-27T11:20:18.147Z,13.20
2018-08-27T11:22:46.880Z,7.23
2018-08-27T11:25:15.517Z,8.60
2018-08-27T11:27:44.203Z,9.73
2018-08-27T11:30:13.252Z,5.43
2018-08-27T11:32:42.148Z,6.07
2018-08-27T11:35:11.402Z,7.93
2018-08-27T11:37:40.205Z,6.37
2018-08-27T11:40:10.648Z,7.67
2018-08-27T11:42:41.951Z,7.47
2018-08-27T11:45:10.647Z,10.60
2018-08-27T11:47:39.531Z,11.87
2018-08-27T11:50:09.298Z,6.43
2018-08-27T11:52:38.224Z,9.10
2018-08-27T11:55:08.685Z,5.40
2018-08-27T11:57:37.656Z,7.13
2018-08-27T12:00:07.812Z,8.13
2018-08-27T12:02:37.268Z,14.67
2018-08-27T12:05:05.994Z,10.80
2018-08-27T12:07:34.858Z,11.37
2018-08-27T12:10:03.891Z,16.63
2018-08-27T12:12:32.680Z,11.17
2018-08-27T12:15:01.640Z,9.13
2018-08-27T12:17:30.372Z,7.50
2018-08-27T12:19:59.159Z,15.37
2018-08-27T12:22:28.208Z,19.23
2018-08-27T12:24:57.351Z,14.00
2018-08-27T12:27:26.184Z,14.53
2018-08-27T12:29:54.828Z,18.70
2018-08-27T12:32:24.903Z,15.50
2018-08-27T12:34:53.638Z,13.03
2018-08-27T12:37:22.653Z,19.70
2018-08-27T12:39:51.621Z,12.37
2018-08-27T12:42:20.240Z,15.53
2018-08-27T12:44:49.223Z,18.40
2018-08-27T12:47:18.455Z,15.20
2018-08-27T12:49:47.909Z,22.33
2018-08-27T12:52:16.854Z,16.23
2018-08-27T12:54:45.821Z,11.43
2018-08-27T12:57:14.568Z,24.40
2018-08-27T12:59:43.617Z,12.67
2018-08-27T13:02:12.664Z,16.70
2018-08-27T13:04:41.557Z,17.10
2018-08-27T13:07:10.319Z,15.67
2018-08-27T13:09:38.988Z,18.97
2018-08-27T13:12:07.640Z,13.00
2018-08-27T13:14:36.454Z,12.73
2018-08-27T13:17:05.123Z,17.03
2018-08-27T13:19:34.072Z,16.03
2018-08-27T13:22:03.045Z,20.40
2018-08-27T13:24:31.984Z,14.13
2018-08-27T13:27:00.611Z,16.77
2018-08-27T13:29:29.325Z,14.00
2018-08-27T13:31:58.269Z,12.00
2018-08-27T13:34:26.925Z,15.73
2018-08-27T13:36:56.157Z,13.50
2018-08-27T13:39:24.892Z,20.13
2018-08-27T13:41:53.729Z,9.30
2018-08-27T13:44:22.713Z,15.10
2018-08-27T13:46:51.388Z,14.80
2018-08-27T13:49:20.072Z,15.27
2018-08-27T13:51:49.815Z,16.87
2018-08-27T13:54:18.849Z,17.33
2018-08-27T13:56:47.992Z,14.83
2018-08-27T13:59:16.683Z,12.40
2018-08-27T14:01:46.266Z,12.03
2018-08-27T14:04:14.943Z,17.23
2018-08-27T14:06:43.821Z,14.27
2018-08-27T14:09:13.217Z,15.33
2018-08-27T14:11:42.042Z,18.23
2018-08-27T14:14:10.967Z,17.33
2018-08-27T14:16:39.549Z,17.83
2018-08-27T14:19:08.746Z,11.00
2018-08-27T14:21:37.285Z,14.53
2018-08-27T14:24:06.651Z,9.73
2018-08-27T14:26:35.568Z,18.37
2018-08-27T14:29:04.432Z,9.90
2018-08-27T14:31:33.250Z,11.87
2018-08-27T14:34:01.811Z,12.23
2018-08-27T14:36:30.622Z,13.40
2018-08-27T14:38:59.403Z,13.13
2018-08-27T14:41:28.250Z,26.33
2018-08-27T14:43:56.909Z,10.87
2018-08-27T14:46:25.623Z,17.30
2018-08-27T14:48:54.436Z,18.67
2018-08-27T14:51:23.239Z,20.47
2018-08-27T14:53:52.061Z,12.80
2018-08-27T14:56:20.995Z,15.00
2018-08-27T14:58:49.611Z,17.70
2018-08-27T15:01:20.880Z,10.27
2018-08-27T15:03:49.636Z,13.23
2018-08-27T15:06:18.633Z,17.60
2018-08-27T15:08:47.680Z,17.17
2018-08-27T15:11:16.399Z,12.63
2018-08-27T15:13:45.009Z,16.30
2018-08-27T15:16:13.654Z,17.70
2018-08-27T15:18:42.559Z,26.10
2018-08-27T15:21:11.294Z,12.80
2018-08-27T15:23:40.181Z,13.00
2018-08-27T15:26:08.756Z,10.90
2018-08-27T15:28:37.456Z,15.50
2018-08-27T15:31:06.493Z,12.37
2018-08-27T15:33:35.456Z,16.37
2018-08-27T15:36:04.074Z,14.00
2018-08-27T15:38:32.889Z,11.10
2018-08-27T15:41:01.478Z,13.87
2018-08-27T15:43:30.395Z,13.53
2018-08-27T15:46:04.637Z,15.43
2018-08-27T15:48:33.299Z,23.57
2018-08-27T15:51:02.199Z,14.53
2018-08-27T15:53:30.881Z,19.33
2018-08-27T15:55:59.592Z,11.30
2018-08-27T15:58:28.797Z,11.40
2018-08-27T16:00:57.618Z,23.73
2018-08-27T16:03:26.437Z,14.60
2018-08-27T16:05:55.502Z,16.87
2018-08-27T16:08:24.177Z,12.20
2018-08-27T16:10:52.932Z,21.50
2018-08-27T16:13:22.195Z,25.60
2018-08-27T16:15:51.162Z,15.90
2018-08-27T16:18:19.972Z,21.07
2018-08-27T16:20:48.604Z,14.40
2018-08-27T16:23:17.471Z,32.37
2018-08-27T16:25:46.267Z,20.93
2018-08-27T16:28:14.971Z,16.40
2018-08-27T16:30:43.579Z,32.20
2018-08-27T16:33:12.602Z,25.73
2018-08-27T16:35:41.308Z,16.53
2018-08-27T16:38:10.353Z,18.90
2018-08-27T16:40:39.405Z,22.93
2018-08-27T16:43:08.444Z,17.17
2018-08-27T16:45:37.276Z,15.47
2018-08-27T16:48:06.099Z,16.30
2018-08-27T16:50:35.083Z,12.80
2018-08-27T16:53:03.846Z,15.63
2018-08-27T16:55:32.593Z,12.53
2018-08-27T16:58:01.336Z,21.10
2018-08-27T17:00:30.225Z,16.83
2018-08-27T17:02:59.067Z,12.40
2018-08-27T17:05:28.045Z,19.53
2018-08-27T17:07:56.683Z,20.03
2018-08-27T17:10:25.417Z,17.50
2018-08-27T17:12:54.353Z,3.30
